sensor_id;sensor_type;location;lat;lon;timestamp;temperature;humidity
64855;DHT22;51321;50.428;8.378;2022-11-20T00:01:34;1.40;99.90
64855;DHT22;51321;50.428;8.378;2022-11-20T00:03:58;1.40;99.90
64855;DHT22;51321;50.428;8.378;2022-11-20T00:06:22;1.50;99.90
64855;DHT22;51321;50.428;8.378;2022-11-20T00:08:46;1.40;99.90
64855;DHT22;51321;50.428;8.378;2022-11-20T00:11:13;1.40;99.90
64855;DHT22;51321;50.428;8.378;2022-11-20T00:13:38;1.40;99.90
64855;DHT22;51321;50.428;8.378;2022-11-20T00:16:04;1.40;99.90
64855;DHT22;51321;50.428;8.378;2022-11-20T00:18:29;1.30;99.90
64855;DHT22;51321;50.428;8.378;2022-11-20T00:20:52;1.40;99.90
64855;DHT22;51321;50.428;8.378;2022-11-20T00:23:14;1.40;99.90
64855;DHT22;51321;50.428;8.378;2022-11-20T00:25:39;1.50;99.90
64855;DHT22;51321;50.428;8.378;2022-11-20T00:28:02;1.40;99.90
64855;DHT22;51321;50.428;8.378;2022-11-20T00:30:28;1.30;99.90
64855;DHT22;51321;50.428;8.378;2022-11-20T00:32:50;1.40;99.90
64855;DHT22;51321;50.428;8.378;2022-11-20T00:35:12;1.40;99.90
64855;DHT22;51321;50.428;8.378;2022-11-20T00:37:35;1.30;99.90
64855;DHT22;51321;50.428;8.378;2022-11-20T00:39:59;1.30;99.90
64855;DHT22;51321;50.428;8.378;2022-11-20T00:42:21;1.30;99.90
64855;DHT22;51321;50.428;8.378;2022-11-20T00:44:43;1.10;99.90
64855;DHT22;51321;50.428;8.378;2022-11-20T00:47:06;1.00;99.90
64855;DHT22;51321;50.428;8.378;2022-11-20T00:49:28;1.00;99.90
64855;DHT22;51321;50.428;8.378;2022-11-20T00:51:51;1.10;99.90
64855;DHT22;51321;50.428;8.378;2022-11-20T00:54:15;1.00;99.90
64855;DHT22;51321;50.428;8.378;2022-11-20T00:56:42;1.00;99.90
64855;DHT22;51321;50.428;8.378;2022-11-20T00:59:05;1.00;99.90
64855;DHT22;51321;50.428;8.378;2022-11-20T01:01:27;1.10;99.90
64855;DHT22;51321;50.428;8.378;2022-11-20T01:03:53;1.20;99.90
64855;DHT22;51321;50.428;8.378;2022-11-20T01:06:23;1.20;99.90
64855;DHT22;51321;50.428;8.378;2022-11-20T01:08:49;1.20;99.90
64855;DHT22;51321;50.428;8.378;2022-11-20T01:11:14;1.30;99.90
64855;DHT22;51321;50.428;8.378;2022-11-20T01:13:37;1.20;99.90
64855;DHT22;51321;50.428;8.378;2022-11-20T01:16:03;1.10;99.90
64855;DHT22;51321;50.428;8.378;2022-11-20T01:18:25;1.10;99.90
64855;DHT22;51321;50.428;8.378;2022-11-20T01:20:51;1.10;99.90
64855;DHT22;51321;50.428;8.378;2022-11-20T01:23:16;1.20;99.90
64855;DHT22;51321;50.428;8.378;2022-11-20T01:25:41;1.10;99.90
64855;DHT22;51321;50.428;8.378;2022-11-20T01:28:05;1.20;99.90
64855;DHT22;51321;50.428;8.378;2022-11-20T01:30:28;1.20;99.90
64855;DHT22;51321;50.428;8.378;2022-11-20T01:32:50;1.10;99.90
64855;DHT22;51321;50.428;8.378;2022-11-20T01:35:16;1.20;99.90
64855;DHT22;51321;50.428;8.378;2022-11-20T01:37:43;1.20;99.90
64855;DHT22;51321;50.428;8.378;2022-11-20T01:40:09;1.10;99.90
64855;DHT22;51321;50.428;8.378;2022-11-20T01:42:33;1.00;99.90
64855;DHT22;51321;50.428;8.378;2022-11-20T01:45:50;1.10;99.90
64855;DHT22;51321;50.428;8.378;2022-11-20T01:48:26;1.10;99.90
64855;DHT22;51321;50.428;8.378;2022-11-20T01:50:52;1.20;99.90
64855;DHT22;51321;50.428;8.378;2022-11-20T01:53:18;1.20;99.90
64855;DHT22;51321;50.428;8.378;2022-11-20T01:55:47;1.20;99.90
64855;DHT22;51321;50.428;8.378;2022-11-20T01:58:12;1.20;99.90
64855;DHT22;51321;50.428;8.378;2022-11-20T02:00:36;1.20;99.90
64855;DHT22;51321;50.428;8.378;2022-11-20T02:03:05;1.20;99.90
64855;DHT22;51321;50.428;8.378;2022-11-20T02:05:49;1.20;99.90
64855;DHT22;51321;50.428;8.378;2022-11-20T02:08:18;1.00;99.90
64855;DHT22;51321;50.428;8.378;2022-11-20T02:10:43;0.80;99.90
64855;DHT22;51321;50.428;8.378;2022-11-20T02:13:19;1.00;99.90
64855;DHT22;51321;50.428;8.378;2022-11-20T02:16:27;1.10;99.90
64855;DHT22;51321;50.428;8.378;2022-11-20T02:19:09;1.00;99.90
64855;DHT22;51321;50.428;8.378;2022-11-20T02:21:45;1.10;99.90
64855;DHT22;51321;50.428;8.378;2022-11-20T02:24:17;1.10;99.90
64855;DHT22;51321;50.428;8.378;2022-11-20T02:26:47;1.10;99.90
64855;DHT22;51321;50.428;8.378;2022-11-20T02:29:12;1.10;99.90
64855;DHT22;51321;50.428;8.378;2022-11-20T02:31:37;1.20;99.90
64855;DHT22;51321;50.428;8.378;2022-11-20T02:34:02;1.10;99.90
64855;DHT22;51321;50.428;8.378;2022-11-20T02:36:27;1.20;99.90
64855;DHT22;51321;50.428;8.378;2022-11-20T02:38:50;1.30;99.90
64855;DHT22;51321;50.428;8.378;2022-11-20T02:41:19;1.20;99.90
64855;DHT22;51321;50.428;8.378;2022-11-20T02:43:43;1.20;99.90
64855;DHT22;51321;50.428;8.378;2022-11-20T02:46:10;1.20;99.90
64855;DHT22;51321;50.428;8.378;2022-11-20T02:48:33;1.30;99.90
64855;DHT22;51321;50.428;8.378;2022-11-20T02:50:56;1.30;99.90
64855;DHT22;51321;50.428;8.378;2022-11-20T02:53:23;1.40;99.90
64855;DHT22;51321;50.428;8.378;2022-11-20T02:55:47;1.40;99.90
64855;DHT22;51321;50.428;8.378;2022-11-20T02:58:12;1.20;99.90
64855;DHT22;51321;50.428;8.378;2022-11-20T03:00:35;1.20;99.90
64855;DHT22;51321;50.428;8.378;2022-11-20T03:03:03;1.20;99.90
64855;DHT22;51321;50.428;8.378;2022-11-20T03:05:26;1.20;99.90
64855;DHT22;51321;50.428;8.378;2022-11-20T03:07:49;1.30;99.90
64855;DHT22;51321;50.428;8.378;2022-11-20T03:10:11;1.30;99.90
64855;DHT22;51321;50.428;8.378;2022-11-20T03:12:34;1.40;99.90
64855;DHT22;51321;50.428;8.378;2022-11-20T03:14:58;1.40;99.90
64855;DHT22;51321;50.428;8.378;2022-11-20T03:17:20;1.30;99.90
64855;DHT22;51321;50.428;8.378;2022-11-20T03:19:44;1.30;99.90
64855;DHT22;51321;50.428;8.378;2022-11-20T03:22:07;1.30;99.90
64855;DHT22;51321;50.428;8.378;2022-11-20T03:24:30;1.30;99.90
64855;DHT22;51321;50.428;8.378;2022-11-20T03:26:52;1.40;99.90
64855;DHT22;51321;50.428;8.378;2022-11-20T03:29:15;1.30;99.90
64855;DHT22;51321;50.428;8.378;2022-11-20T03:31:40;1.30;99.90
64855;DHT22;51321;50.428;8.378;2022-11-20T03:34:04;1.20;99.90
64855;DHT22;51321;50.428;8.378;2022-11-20T03:36:27;1.20;99.90
64855;DHT22;51321;50.428;8.378;2022-11-20T03:38:50;1.20;99.90
64855;DHT22;51321;50.428;8.378;2022-11-20T03:41:14;1.30;99.90
64855;DHT22;51321;50.428;8.378;2022-11-20T03:43:38;1.40;99.90
64855;DHT22;51321;50.428;8.378;2022-11-20T03:46:02;1.40;99.90
64855;DHT22;51321;50.428;8.378;2022-11-20T03:48:27;1.40;99.90
64855;DHT22;51321;50.428;8.378;2022-11-20T03:51:07;1.30;99.90
64855;DHT22;51321;50.428;8.378;2022-11-20T03:53:29;1.20;99.90
64855;DHT22;51321;50.428;8.378;2022-11-20T03:55:52;1.30;99.90
64855;DHT22;51321;50.428;8.378;2022-11-20T03:58:15;1.40;99.90
64855;DHT22;51321;50.428;8.378;2022-11-20T04:00:41;1.40;99.90
64855;DHT22;51321;50.428;8.378;2022-11-20T04:03:03;1.40;99.90
64855;DHT22;51321;50.428;8.378;2022-11-20T04:05:29;1.40;99.90
64855;DHT22;51321;50.428;8.378;2022-11-20T04:07:52;1.40;99.90
64855;DHT22;51321;50.428;8.378;2022-11-20T04:10:14;1.30;99.90
64855;DHT22;51321;50.428;8.378;2022-11-20T04:12:36;1.30;99.90
64855;DHT22;51321;50.428;8.378;2022-11-20T04:14:58;1.40;99.90
64855;DHT22;51321;50.428;8.378;2022-11-20T04:17:20;1.30;99.90
64855;DHT22;51321;50.428;8.378;2022-11-20T04:19:43;1.30;99.90
64855;DHT22;51321;50.428;8.378;2022-11-20T04:22:08;1.30;99.90
64855;DHT22;51321;50.428;8.378;2022-11-20T04:24:32;1.20;99.90
64855;DHT22;51321;50.428;8.378;2022-11-20T04:26:54;1.30;99.90
64855;DHT22;51321;50.428;8.378;2022-11-20T04:29:16;1.40;99.90
64855;DHT22;51321;50.428;8.378;2022-11-20T04:31:38;1.50;99.90
64855;DHT22;51321;50.428;8.378;2022-11-20T04:34:01;1.50;99.90
64855;DHT22;51321;50.428;8.378;2022-11-20T04:36:27;1.40;99.90
64855;DHT22;51321;50.428;8.378;2022-11-20T04:38:52;1.30;99.90
64855;DHT22;51321;50.428;8.378;2022-11-20T04:41:16;1.30;99.90
64855;DHT22;51321;50.428;8.378;2022-11-20T04:43:41;1.40;99.90
64855;DHT22;51321;50.428;8.378;2022-11-20T04:46:05;1.50;99.90
64855;DHT22;51321;50.428;8.378;2022-11-20T04:48:30;1.60;99.90
64855;DHT22;51321;50.428;8.378;2022-11-20T04:50:53;1.50;99.90
64855;DHT22;51321;50.428;8.378;2022-11-20T04:53:16;1.40;99.90
64855;DHT22;51321;50.428;8.378;2022-11-20T04:55:41;1.30;99.90
64855;DHT22;51321;50.428;8.378;2022-11-20T04:58:04;1.40;99.90
64855;DHT22;51321;50.428;8.378;2022-11-20T05:00:27;1.50;99.90
64855;DHT22;51321;50.428;8.378;2022-11-20T05:02:51;1.40;99.90
64855;DHT22;51321;50.428;8.378;2022-11-20T05:05:14;1.40;99.90
64855;DHT22;51321;50.428;8.378;2022-11-20T05:07:38;1.30;99.90
64855;DHT22;51321;50.428;8.378;2022-11-20T05:10:00;1.30;99.90
64855;DHT22;51321;50.428;8.378;2022-11-20T05:12:24;1.30;99.90
64855;DHT22;51321;50.428;8.378;2022-11-20T05:14:47;1.30;99.90
64855;DHT22;51321;50.428;8.378;2022-11-20T05:17:10;1.30;99.90
64855;DHT22;51321;50.428;8.378;2022-11-20T05:19:32;1.40;99.90
64855;DHT22;51321;50.428;8.378;2022-11-20T05:21:55;1.40;99.90
64855;DHT22;51321;50.428;8.378;2022-11-20T05:24:19;1.30;99.90
64855;DHT22;51321;50.428;8.378;2022-11-20T05:26:42;1.30;99.90
64855;DHT22;51321;50.428;8.378;2022-11-20T05:29:06;1.40;99.90
64855;DHT22;51321;50.428;8.378;2022-11-20T05:31:28;1.30;99.90
64855;DHT22;51321;50.428;8.378;2022-11-20T05:33:51;1.30;99.90
64855;DHT22;51321;50.428;8.378;2022-11-20T05:36:15;1.30;99.90
64855;DHT22;51321;50.428;8.378;2022-11-20T05:38:38;1.30;99.90
64855;DHT22;51321;50.428;8.378;2022-11-20T05:41:04;1.10;99.90
64855;DHT22;51321;50.428;8.378;2022-11-20T05:43:33;1.10;99.90
64855;DHT22;51321;50.428;8.378;2022-11-20T05:45:58;1.10;99.90
64855;DHT22;51321;50.428;8.378;2022-11-20T05:48:21;1.00;99.90
64855;DHT22;51321;50.428;8.378;2022-11-20T05:50:45;1.00;99.90
64855;DHT22;51321;50.428;8.378;2022-11-20T05:53:14;1.10;99.90
64855;DHT22;51321;50.428;8.378;2022-11-20T05:55:38;1.00;99.90
64855;DHT22;51321;50.428;8.378;2022-11-20T05:58:01;1.00;99.90
64855;DHT22;51321;50.428;8.378;2022-11-20T06:00:28;1.00;99.90
64855;DHT22;51321;50.428;8.378;2022-11-20T06:02:53;1.10;99.90
64855;DHT22;51321;50.428;8.378;2022-11-20T06:05:16;1.10;99.90
64855;DHT22;51321;50.428;8.378;2022-11-20T06:07:38;1.30;99.90
64855;DHT22;51321;50.428;8.378;2022-11-20T06:10:00;1.50;99.90
64855;DHT22;51321;50.428;8.378;2022-11-20T06:12:23;1.50;99.90
64855;DHT22;51321;50.428;8.378;2022-11-20T06:14:46;1.50;99.90
64855;DHT22;51321;50.428;8.378;2022-11-20T06:17:08;1.50;99.90
64855;DHT22;51321;50.428;8.378;2022-11-20T06:19:34;1.60;99.90
64855;DHT22;51321;50.428;8.378;2022-11-20T06:21:56;1.70;99.90
64855;DHT22;51321;50.428;8.378;2022-11-20T06:24:20;1.70;99.90
64855;DHT22;51321;50.428;8.378;2022-11-20T06:26:44;1.60;99.90
64855;DHT22;51321;50.428;8.378;2022-11-20T06:29:10;1.50;99.90
64855;DHT22;51321;50.428;8.378;2022-11-20T06:31:33;1.50;99.90
64855;DHT22;51321;50.428;8.378;2022-11-20T06:33:59;1.50;99.90
64855;DHT22;51321;50.428;8.378;2022-11-20T06:36:26;1.40;99.90
64855;DHT22;51321;50.428;8.378;2022-11-20T06:38:49;1.70;99.90
64855;DHT22;51321;50.428;8.378;2022-11-20T06:41:14;1.60;99.90
64855;DHT22;51321;50.428;8.378;2022-11-20T06:43:37;1.60;99.90
64855;DHT22;51321;50.428;8.378;2022-11-20T06:46:00;1.60;99.90
64855;DHT22;51321;50.428;8.378;2022-11-20T06:48:25;1.70;99.90
64855;DHT22;51321;50.428;8.378;2022-11-20T06:50:47;1.70;99.90
64855;DHT22;51321;50.428;8.378;2022-11-20T06:53:11;1.70;99.90
64855;DHT22;51321;50.428;8.378;2022-11-20T06:55:34;1.60;99.90
64855;DHT22;51321;50.428;8.378;2022-11-20T06:57:58;1.60;99.90
64855;DHT22;51321;50.428;8.378;2022-11-20T07:00:23;1.60;99.90
64855;DHT22;51321;50.428;8.378;2022-11-20T07:02:45;1.50;99.90
64855;DHT22;51321;50.428;8.378;2022-11-20T07:05:08;1.50;99.90
64855;DHT22;51321;50.428;8.378;2022-11-20T07:07:31;1.50;99.90
64855;DHT22;51321;50.428;8.378;2022-11-20T07:09:58;1.50;99.90
64855;DHT22;51321;50.428;8.378;2022-11-20T07:12:20;1.50;99.90
64855;DHT22;51321;50.428;8.378;2022-11-20T07:14:43;1.50;99.90
64855;DHT22;51321;50.428;8.378;2022-11-20T07:17:05;1.60;99.90
64855;DHT22;51321;50.428;8.378;2022-11-20T07:19:32;1.60;99.90
64855;DHT22;51321;50.428;8.378;2022-11-20T07:21:57;1.70;99.90
64855;DHT22;51321;50.428;8.378;2022-11-20T07:24:19;1.70;99.90
64855;DHT22;51321;50.428;8.378;2022-11-20T07:26:46;1.80;99.90
64855;DHT22;51321;50.428;8.378;2022-11-20T07:29:09;1.80;99.90
64855;DHT22;51321;50.428;8.378;2022-11-20T07:31:32;1.80;99.90
64855;DHT22;51321;50.428;8.378;2022-11-20T07:33:57;1.80;99.90
64855;DHT22;51321;50.428;8.378;2022-11-20T07:36:20;1.90;99.90
64855;DHT22;51321;50.428;8.378;2022-11-20T07:38:43;1.80;99.90
64855;DHT22;51321;50.428;8.378;2022-11-20T07:41:07;1.80;99.90
64855;DHT22;51321;50.428;8.378;2022-11-20T07:43:31;1.80;99.90
64855;DHT22;51321;50.428;8.378;2022-11-20T07:45:55;1.80;99.90
64855;DHT22;51321;50.428;8.378;2022-11-20T07:48:18;1.80;99.90
64855;DHT22;51321;50.428;8.378;2022-11-20T07:50:40;1.80;99.90
64855;DHT22;51321;50.428;8.378;2022-11-20T07:53:04;1.90;99.90
64855;DHT22;51321;50.428;8.378;2022-11-20T07:55:27;1.80;99.90
64855;DHT22;51321;50.428;8.378;2022-11-20T07:57:54;1.80;99.90
64855;DHT22;51321;50.428;8.378;2022-11-20T08:00:20;1.90;99.90
64855;DHT22;51321;50.428;8.378;2022-11-20T08:02:43;2.00;99.90
64855;DHT22;51321;50.428;8.378;2022-11-20T08:05:08;2.10;99.90
64855;DHT22;51321;50.428;8.378;2022-11-20T08:07:35;2.10;99.90
64855;DHT22;51321;50.428;8.378;2022-11-20T08:09:58;2.10;99.90
64855;DHT22;51321;50.428;8.378;2022-11-20T08:12:20;2.20;99.90
64855;DHT22;51321;50.428;8.378;2022-11-20T08:15:00;2.20;99.90
64855;DHT22;51321;50.428;8.378;2022-11-20T08:17:26;2.20;99.90
64855;DHT22;51321;50.428;8.378;2022-11-20T08:19:49;2.10;99.90
64855;DHT22;51321;50.428;8.378;2022-11-20T08:22:11;2.20;99.90
64855;DHT22;51321;50.428;8.378;2022-11-20T08:24:33;2.30;99.90
64855;DHT22;51321;50.428;8.378;2022-11-20T08:26:56;2.30;99.90
64855;DHT22;51321;50.428;8.378;2022-11-20T08:29:20;2.40;99.90
64855;DHT22;51321;50.428;8.378;2022-11-20T08:31:43;2.40;99.90
64855;DHT22;51321;50.428;8.378;2022-11-20T08:34:07;2.50;99.90
64855;DHT22;51321;50.428;8.378;2022-11-20T08:36:33;2.60;99.90
64855;DHT22;51321;50.428;8.378;2022-11-20T08:38:56;2.60;99.90
64855;DHT22;51321;50.428;8.378;2022-11-20T08:41:20;2.60;99.90
64855;DHT22;51321;50.428;8.378;2022-11-20T08:43:47;2.70;99.90
64855;DHT22;51321;50.428;8.378;2022-11-20T08:46:12;2.70;99.90
64855;DHT22;51321;50.428;8.378;2022-11-20T08:48:34;2.80;99.90
64855;DHT22;51321;50.428;8.378;2022-11-20T08:51:00;2.80;99.90
64855;DHT22;51321;50.428;8.378;2022-11-20T08:53:23;2.90;99.90
64855;DHT22;51321;50.428;8.378;2022-11-20T08:55:46;2.80;99.90
64855;DHT22;51321;50.428;8.378;2022-11-20T08:58:08;2.80;99.90
64855;DHT22;51321;50.428;8.378;2022-11-20T09:00:31;2.80;99.90
64855;DHT22;51321;50.428;8.378;2022-11-20T09:02:54;2.80;99.90
64855;DHT22;51321;50.428;8.378;2022-11-20T09:05:16;2.80;99.90
64855;DHT22;51321;50.428;8.378;2022-11-20T09:07:40;2.80;99.90
64855;DHT22;51321;50.428;8.378;2022-11-20T09:10:04;2.80;99.90
64855;DHT22;51321;50.428;8.378;2022-11-20T09:12:30;2.80;99.90
64855;DHT22;51321;50.428;8.378;2022-11-20T09:14:53;2.80;99.90
64855;DHT22;51321;50.428;8.378;2022-11-20T09:17:17;3.00;99.90
64855;DHT22;51321;50.428;8.378;2022-11-20T09:19:41;3.10;99.90
64855;DHT22;51321;50.428;8.378;2022-11-20T09:22:03;3.10;99.90
64855;DHT22;51321;50.428;8.378;2022-11-20T09:24:27;3.20;99.90
64855;DHT22;51321;50.428;8.378;2022-11-20T09:26:50;3.10;99.90
64855;DHT22;51321;50.428;8.378;2022-11-20T09:29:14;3.10;99.90
64855;DHT22;51321;50.428;8.378;2022-11-20T09:31:37;3.10;99.90
64855;DHT22;51321;50.428;8.378;2022-11-20T09:34:00;3.10;99.90
64855;DHT22;51321;50.428;8.378;2022-11-20T09:36:25;3.10;99.90
64855;DHT22;51321;50.428;8.378;2022-11-20T09:38:48;3.20;99.90
64855;DHT22;51321;50.428;8.378;2022-11-20T09:41:14;3.30;99.90
64855;DHT22;51321;50.428;8.378;2022-11-20T09:43:49;3.40;99.90
64855;DHT22;51321;50.428;8.378;2022-11-20T09:46:27;3.30;99.90
64855;DHT22;51321;50.428;8.378;2022-11-20T09:49:18;3.30;99.90
64855;DHT22;51321;50.428;8.378;2022-11-20T09:51:45;3.30;99.90
64855;DHT22;51321;50.428;8.378;2022-11-20T09:54:17;3.40;99.90
64855;DHT22;51321;50.428;8.378;2022-11-20T09:56:43;3.30;99.90
64855;DHT22;51321;50.428;8.378;2022-11-20T09:59:26;3.30;99.90
64855;DHT22;51321;50.428;8.378;2022-11-20T10:01:51;3.30;99.90
64855;DHT22;51321;50.428;8.378;2022-11-20T10:04:17;3.40;99.90
64855;DHT22;51321;50.428;8.378;2022-11-20T10:06:47;3.40;99.90
64855;DHT22;51321;50.428;8.378;2022-11-20T10:09:20;3.40;99.90
64855;DHT22;51321;50.428;8.378;2022-11-20T10:11:51;3.40;99.90
64855;DHT22;51321;50.428;8.378;2022-11-20T10:14:24;3.50;99.90
64855;DHT22;51321;50.428;8.378;2022-11-20T10:16:55;3.40;99.90
64855;DHT22;51321;50.428;8.378;2022-11-20T10:19:32;3.50;99.90
64855;DHT22;51321;50.428;8.378;2022-11-20T10:22:07;3.50;99.90
64855;DHT22;51321;50.428;8.378;2022-11-20T10:24:47;3.40;99.90
64855;DHT22;51321;50.428;8.378;2022-11-20T10:27:28;3.40;99.90
64855;DHT22;51321;50.428;8.378;2022-11-20T10:30:08;3.30;99.90
64855;DHT22;51321;50.428;8.378;2022-11-20T10:32:35;3.50;99.90
64855;DHT22;51321;50.428;8.378;2022-11-20T10:35:03;3.50;99.90
64855;DHT22;51321;50.428;8.378;2022-11-20T10:37:28;3.50;99.90
64855;DHT22;51321;50.428;8.378;2022-11-20T10:39:59;3.50;99.90
64855;DHT22;51321;50.428;8.378;2022-11-20T10:42:30;3.50;99.90
64855;DHT22;51321;50.428;8.378;2022-11-20T10:45:09;3.50;99.90
64855;DHT22;51321;50.428;8.378;2022-11-20T10:47:33;3.60;99.90
64855;DHT22;51321;50.428;8.378;2022-11-20T10:50:03;3.70;99.90
64855;DHT22;51321;50.428;8.378;2022-11-20T10:52:33;3.60;99.90
64855;DHT22;51321;50.428;8.378;2022-11-20T10:55:05;3.50;99.90
64855;DHT22;51321;50.428;8.378;2022-11-20T10:57:47;3.60;99.90
64855;DHT22;51321;50.428;8.378;2022-11-20T11:00:12;3.60;99.90
64855;DHT22;51321;50.428;8.378;2022-11-20T11:02:42;3.70;99.90
64855;DHT22;51321;50.428;8.378;2022-11-20T11:05:23;3.60;99.90
64855;DHT22;51321;50.428;8.378;2022-11-20T11:07:52;3.70;99.90
64855;DHT22;51321;50.428;8.378;2022-11-20T11:10:17;3.90;99.90
64855;DHT22;51321;50.428;8.378;2022-11-20T11:12:43;3.80;99.90
64855;DHT22;51321;50.428;8.378;2022-11-20T11:15:13;3.80;99.90
64855;DHT22;51321;50.428;8.378;2022-11-20T11:17:36;3.90;99.90
64855;DHT22;51321;50.428;8.378;2022-11-20T11:20:15;4.10;99.90
64855;DHT22;51321;50.428;8.378;2022-11-20T11:22:44;4.10;99.90
64855;DHT22;51321;50.428;8.378;2022-11-20T11:25:09;4.10;99.90
64855;DHT22;51321;50.428;8.378;2022-11-20T11:27:47;4.20;99.90
64855;DHT22;51321;50.428;8.378;2022-11-20T11:30:15;4.40;99.90
64855;DHT22;51321;50.428;8.378;2022-11-20T11:32:38;4.50;99.90
64855;DHT22;51321;50.428;8.378;2022-11-20T11:35:02;4.50;99.90
64855;DHT22;51321;50.428;8.378;2022-11-20T11:37:29;4.40;99.90
64855;DHT22;51321;50.428;8.378;2022-11-20T11:39:55;4.40;99.90
64855;DHT22;51321;50.428;8.378;2022-11-20T11:42:18;4.40;99.90
64855;DHT22;51321;50.428;8.378;2022-11-20T11:44:44;4.30;99.90
64855;DHT22;51321;50.428;8.378;2022-11-20T11:47:26;4.30;99.90
64855;DHT22;51321;50.428;8.378;2022-11-20T11:49:54;4.30;99.90
64855;DHT22;51321;50.428;8.378;2022-11-20T11:52:24;4.40;99.90
64855;DHT22;51321;50.428;8.378;2022-11-20T11:54:50;4.40;99.90
64855;DHT22;51321;50.428;8.378;2022-11-20T11:57:19;4.40;99.90
64855;DHT22;51321;50.428;8.378;2022-11-20T11:59:54;4.60;99.90
64855;DHT22;51321;50.428;8.378;2022-11-20T12:02:29;4.60;99.90
64855;DHT22;51321;50.428;8.378;2022-11-20T12:04:57;4.60;99.90
64855;DHT22;51321;50.428;8.378;2022-11-20T12:07:32;4.40;99.90
64855;DHT22;51321;50.428;8.378;2022-11-20T12:09:57;4.30;99.90
64855;DHT22;51321;50.428;8.378;2022-11-20T12:12:27;4.20;99.90
64855;DHT22;51321;50.428;8.378;2022-11-20T12:14:54;4.10;99.90
64855;DHT22;51321;50.428;8.378;2022-11-20T12:17:17;4.00;99.90
64855;DHT22;51321;50.428;8.378;2022-11-20T12:19:41;4.00;99.90
64855;DHT22;51321;50.428;8.378;2022-11-20T12:22:10;4.10;99.90
64855;DHT22;51321;50.428;8.378;2022-11-20T12:24:47;4.10;99.90
64855;DHT22;51321;50.428;8.378;2022-11-20T12:27:44;4.10;99.90
64855;DHT22;51321;50.428;8.378;2022-11-20T12:30:14;4.20;99.90
64855;DHT22;51321;50.428;8.378;2022-11-20T12:32:58;4.40;99.90
64855;DHT22;51321;50.428;8.378;2022-11-20T12:35:34;4.40;99.90
64855;DHT22;51321;50.428;8.378;2022-11-20T12:38:20;4.40;99.90
64855;DHT22;51321;50.428;8.378;2022-11-20T12:40:50;4.50;99.90
64855;DHT22;51321;50.428;8.378;2022-11-20T12:43:20;4.60;99.90
64855;DHT22;51321;50.428;8.378;2022-11-20T12:46:13;4.60;99.90
64855;DHT22;51321;50.428;8.378;2022-11-20T12:48:58;4.70;99.90
64855;DHT22;51321;50.428;8.378;2022-11-20T12:57:21;4.70;99.90
64855;DHT22;51321;50.428;8.378;2022-11-20T12:59:58;4.70;99.90
64855;DHT22;51321;50.428;8.378;2022-11-20T13:02:54;4.70;99.90
64855;DHT22;51321;50.428;8.378;2022-11-20T13:05:21;4.70;99.90
64855;DHT22;51321;50.428;8.378;2022-11-20T13:07:51;4.60;99.90
64855;DHT22;51321;50.428;8.378;2022-11-20T13:10:23;4.50;99.90
64855;DHT22;51321;50.428;8.378;2022-11-20T13:12:53;4.60;99.90
64855;DHT22;51321;50.428;8.378;2022-11-20T13:15:34;4.60;99.90
64855;DHT22;51321;50.428;8.378;2022-11-20T13:18:04;4.60;99.90
64855;DHT22;51321;50.428;8.378;2022-11-20T13:20:29;4.50;99.90
64855;DHT22;51321;50.428;8.378;2022-11-20T13:22:54;4.50;99.90
64855;DHT22;51321;50.428;8.378;2022-11-20T13:25:24;4.60;99.90
64855;DHT22;51321;50.428;8.378;2022-11-20T13:27:48;4.50;99.90
64855;DHT22;51321;50.428;8.378;2022-11-20T13:30:20;4.60;99.90
64855;DHT22;51321;50.428;8.378;2022-11-20T13:32:53;4.50;99.90
64855;DHT22;51321;50.428;8.378;2022-11-20T13:35:31;4.40;99.90
64855;DHT22;51321;50.428;8.378;2022-11-20T13:38:23;4.40;99.90
64855;DHT22;51321;50.428;8.378;2022-11-20T13:40:52;4.40;99.90
64855;DHT22;51321;50.428;8.378;2022-11-20T13:43:32;4.40;99.90
64855;DHT22;51321;50.428;8.378;2022-11-20T13:46:01;4.40;99.90
64855;DHT22;51321;50.428;8.378;2022-11-20T13:48:32;4.50;99.90
64855;DHT22;51321;50.428;8.378;2022-11-20T13:51:12;4.50;99.90
64855;DHT22;51321;50.428;8.378;2022-11-20T13:53:51;4.60;99.90
64855;DHT22;51321;50.428;8.378;2022-11-20T13:56:20;4.60;99.90
64855;DHT22;51321;50.428;8.378;2022-11-20T13:58:52;4.60;99.90
64855;DHT22;51321;50.428;8.378;2022-11-20T14:01:21;4.60;99.90
64855;DHT22;51321;50.428;8.378;2022-11-20T14:03:46;4.60;99.90
64855;DHT22;51321;50.428;8.378;2022-11-20T14:06:16;4.70;99.90
64855;DHT22;51321;50.428;8.378;2022-11-20T14:08:47;4.70;99.90
64855;DHT22;51321;50.428;8.378;2022-11-20T14:11:15;4.70;99.90
64855;DHT22;51321;50.428;8.378;2022-11-20T14:13:38;4.70;99.90
64855;DHT22;51321;50.428;8.378;2022-11-20T14:16:02;4.70;99.90
64855;DHT22;51321;50.428;8.378;2022-11-20T14:18:26;4.70;99.90
64855;DHT22;51321;50.428;8.378;2022-11-20T14:20:53;4.70;99.90
64855;DHT22;51321;50.428;8.378;2022-11-20T14:23:25;4.60;99.90
64855;DHT22;51321;50.428;8.378;2022-11-20T14:25:48;4.60;99.90
64855;DHT22;51321;50.428;8.378;2022-11-20T14:28:17;4.70;99.90
64855;DHT22;51321;50.428;8.378;2022-11-20T14:30:46;4.60;99.90
64855;DHT22;51321;50.428;8.378;2022-11-20T14:33:11;4.60;99.90
64855;DHT22;51321;50.428;8.378;2022-11-20T14:35:40;4.50;99.90
64855;DHT22;51321;50.428;8.378;2022-11-20T14:38:11;4.60;99.90
64855;DHT22;51321;50.428;8.378;2022-11-20T14:40:39;4.60;99.90
64855;DHT22;51321;50.428;8.378;2022-11-20T14:43:17;4.60;99.90
64855;DHT22;51321;50.428;8.378;2022-11-20T14:45:40;4.70;99.90
64855;DHT22;51321;50.428;8.378;2022-11-20T14:48:04;4.70;99.90
64855;DHT22;51321;50.428;8.378;2022-11-20T14:50:28;4.60;99.90
64855;DHT22;51321;50.428;8.378;2022-11-20T14:52:52;4.60;99.90
64855;DHT22;51321;50.428;8.378;2022-11-20T14:55:25;4.60;99.90
64855;DHT22;51321;50.428;8.378;2022-11-20T14:57:55;4.60;99.90
64855;DHT22;51321;50.428;8.378;2022-11-20T15:00:20;4.50;99.90
64855;DHT22;51321;50.428;8.378;2022-11-20T15:02:45;4.60;99.90
64855;DHT22;51321;50.428;8.378;2022-11-20T15:05:08;4.70;99.90
64855;DHT22;51321;50.428;8.378;2022-11-20T15:07:34;4.60;99.90
64855;DHT22;51321;50.428;8.378;2022-11-20T15:10:03;4.60;99.90
64855;DHT22;51321;50.428;8.378;2022-11-20T15:12:26;4.50;99.90
64855;DHT22;51321;50.428;8.378;2022-11-20T15:14:50;4.50;99.90
64855;DHT22;51321;50.428;8.378;2022-11-20T15:17:15;4.50;99.90
64855;DHT22;51321;50.428;8.378;2022-11-20T15:19:37;4.60;99.90
64855;DHT22;51321;50.428;8.378;2022-11-20T15:22:00;4.50;99.90
64855;DHT22;51321;50.428;8.378;2022-11-20T15:24:22;4.40;99.90
64855;DHT22;51321;50.428;8.378;2022-11-20T15:26:47;4.50;99.90
64855;DHT22;51321;50.428;8.378;2022-11-20T15:29:12;4.50;99.90
64855;DHT22;51321;50.428;8.378;2022-11-20T15:31:36;4.50;99.90
64855;DHT22;51321;50.428;8.378;2022-11-20T15:34:02;4.50;99.90
64855;DHT22;51321;50.428;8.378;2022-11-20T15:36:28;4.50;99.90
64855;DHT22;51321;50.428;8.378;2022-11-20T15:38:51;4.40;99.90
64855;DHT22;51321;50.428;8.378;2022-11-20T15:41:13;4.40;99.90
64855;DHT22;51321;50.428;8.378;2022-11-20T15:43:36;4.30;99.90
64855;DHT22;51321;50.428;8.378;2022-11-20T15:46:00;4.30;99.90
64855;DHT22;51321;50.428;8.378;2022-11-20T15:48:27;4.30;99.90